Terminal Aerodrome Forecast
Issued by NWS Mt. Holly, NJ

Current Version | Previous Version | Text Only | Print | Product List | Glossary On
Versions: 1 2 3 4 5 6 7 8 9 10 11 12 13 14
895
FTUS41 KPHI 081731
TAFRDG
TAF
KRDG 081731Z 0818/0918 06010KT P6SM BKN030 OVC035
     FM090000 11006KT P6SM OVC020
     FM090300 09007KT 4SM -SN OVC009
     FM090500 07007KT 2SM -SN BR OVC007
     FM091000 04006KT 1SM -SN BR OVC005=

USA.gov is the U.S. government's official web portal to all federal, state and local government web resources and services.